createdAt,value
2022-09-05T00:02:09.197Z,75.70
2022-09-05T00:04:50.168Z,75.80
2022-09-05T00:07:37.390Z,75.90
2022-09-05T00:10:26.470Z,76.10
2022-09-05T00:13:10.890Z,76.30
2022-09-05T00:15:58.399Z,76.50
2022-09-05T00:24:07.571Z,76.70
2022-09-05T00:24:24.865Z,76.90
2022-09-05T00:27:59.838Z,77.30
2022-09-05T00:31:50.747Z,77.60
2022-09-05T00:33:37.613Z,77.80
2022-09-05T00:36:27.197Z,77.90
2022-09-05T00:39:01.885Z,78.10
2022-09-05T00:41:34.338Z,78.30
2022-09-05T00:44:05.458Z,78.50
2022-09-05T00:46:38.142Z,78.60
2022-09-05T00:49:21.396Z,78.80
2022-09-05T00:51:56.437Z,79.00
2022-09-05T00:54:53.123Z,79.10
2022-09-05T00:57:56.900Z,79.50
2022-09-05T01:00:35.673Z,79.70
2022-09-05T01:03:37.678Z,79.90
2022-09-05T01:06:18.624Z,80.10
2022-09-05T01:09:23.547Z,80.30
2022-09-05T01:12:10.776Z,80.40
2022-09-05T01:15:02.312Z,80.60
2022-09-05T01:17:49.875Z,80.70
2022-09-05T01:20:38.255Z,81.00
2022-09-05T01:23:33.946Z,81.10
2022-09-05T01:26:41.704Z,81.40
2022-09-05T01:29:25.803Z,81.50
2022-09-05T01:32:15.543Z,81.60
2022-09-05T01:35:02.506Z,81.70
2022-09-05T01:37:41.722Z,82.00
2022-09-05T01:40:21.341Z,82.00
2022-09-05T01:43:10.375Z,82.30
2022-09-05T01:45:51.201Z,82.60
2022-09-05T01:48:37.231Z,82.80
2022-09-05T01:51:28.621Z,83.10
2022-09-05T01:54:23.996Z,83.10
2022-09-05T01:57:09.943Z,83.30
2022-09-05T01:59:48.101Z,83.50
2022-09-05T02:02:50.299Z,83.60
2022-09-05T02:05:57.257Z,83.90
2022-09-05T02:08:55.051Z,83.80
2022-09-05T02:11:46.351Z,83.90
2022-09-05T02:14:34.130Z,84.30
2022-09-05T02:17:23.723Z,84.40
2022-09-05T02:20:25.044Z,84.60
2022-09-05T02:23:27.364Z,84.90
2022-09-05T02:26:04.344Z,85.10
2022-09-05T02:28:47.039Z,85.30
2022-09-05T02:31:22.190Z,85.50
2022-09-05T02:34:01.891Z,85.70
2022-09-05T02:36:44.241Z,86.10
2022-09-05T02:45:00.596Z,86.20
2022-09-05T02:45:16.500Z,86.40
2022-09-05T02:45:29.054Z,86.70
2022-09-05T02:48:15.574Z,86.90
2022-09-05T02:57:24.834Z,87.10
2022-09-05T02:57:28.900Z,88.10
2022-09-05T02:57:38.790Z,87.60
2022-09-05T03:00:21.120Z,88.50
2022-09-05T03:03:21.100Z,88.80
2022-09-05T03:05:57.896Z,89.10
2022-09-05T03:08:52.247Z,89.40
2022-09-05T03:12:28.496Z,89.90
2022-09-05T03:15:56.204Z,90.10
2022-09-05T03:19:37.784Z,90.20
2022-09-05T03:23:21.003Z,90.30
2022-09-05T03:26:38.806Z,90.30
2022-09-05T03:29:37.476Z,90.30
2022-09-05T03:32:40.348Z,90.50
2022-09-05T03:36:08.803Z,90.50
2022-09-05T03:39:33.416Z,90.60
2022-09-05T03:42:53.544Z,90.50
2022-09-05T03:45:54.399Z,90.50
2022-09-05T03:48:48.888Z,90.60
2022-09-05T03:57:07.107Z,90.60
2022-09-05T03:57:11.564Z,90.70
2022-09-05T03:58:56.094Z,90.70
2022-09-05T04:02:35.299Z,90.80
2022-09-05T04:08:19.116Z,90.80
2022-09-05T04:08:27.565Z,90.90
2022-09-05T04:10:28.554Z,91.00
2022-09-05T04:13:04.142Z,91.20
2022-09-05T04:15:42.352Z,91.30
2022-09-05T04:18:34.834Z,91.40
2022-09-05T04:21:11.223Z,91.50
2022-09-05T04:23:53.753Z,91.50
2022-09-05T04:26:51.111Z,91.60
2022-09-05T04:29:28.985Z,91.70
2022-09-05T04:32:18.853Z,91.70
2022-09-05T04:35:23.884Z,91.90
2022-09-05T04:37:59.384Z,92.00
2022-09-05T04:40:40.285Z,92.10
2022-09-05T04:43:15.045Z,92.10
2022-09-05T04:45:46.432Z,92.30
2022-09-05T04:48:21.864Z,92.10
2022-09-05T04:51:12.863Z,92.10
2022-09-05T04:54:12.871Z,92.10
2022-09-05T04:56:47.192Z,92.20
2022-09-05T05:00:54.306Z,92.20
2022-09-05T05:06:01.410Z,92.20
2022-09-05T05:06:08.545Z,92.20
2022-09-05T05:08:13.030Z,92.20
2022-09-05T05:16:32.495Z,92.20
2022-09-05T05:17:58.850Z,92.20
2022-09-05T05:18:12.789Z,92.20
2022-09-05T05:19:35.426Z,92.20
2022-09-05T05:22:07.167Z,92.20
2022-09-05T05:24:45.485Z,92.30
2022-09-05T05:27:25.235Z,92.30
2022-09-05T05:30:01.517Z,92.30
2022-09-05T05:32:45.817Z,92.40
2022-09-05T05:35:19.756Z,92.40
2022-09-05T05:37:54.968Z,92.40
2022-09-05T05:40:31.597Z,92.30
2022-09-05T05:43:18.471Z,92.30
2022-09-05T05:48:33.305Z,92.20
2022-09-05T05:52:00.675Z,92.20
2022-09-05T05:54:33.111Z,92.20
2022-09-05T05:57:48.323Z,92.20
2022-09-05T06:00:27.662Z,92.10
2022-09-05T06:04:09.458Z,92.10
2022-09-05T06:07:10.045Z,92.00
2022-09-05T06:14:53.093Z,91.90
2022-09-05T06:16:32.036Z,91.80
2022-09-05T06:20:03.310Z,91.70
2022-09-05T06:23:36.624Z,91.80
2022-09-05T06:26:45.707Z,91.70
2022-09-05T06:29:37.962Z,91.70
2022-09-05T06:32:28.321Z,91.60
2022-09-05T06:35:24.807Z,91.60
2022-09-05T06:38:10.592Z,91.60
2022-09-05T06:40:55.691Z,91.60
2022-09-05T06:43:37.253Z,91.80
2022-09-05T06:46:54.916Z,91.30
2022-09-05T06:49:30.251Z,91.20
2022-09-05T06:52:49.484Z,91.30
2022-09-05T06:55:57.024Z,91.20
2022-09-05T06:59:17.275Z,91.10
2022-09-05T07:02:00.151Z,91.30
2022-09-05T07:05:23.312Z,91.40
2022-09-05T07:07:45.651Z,91.00
2022-09-05T07:10:39.855Z,90.60
2022-09-05T07:13:16.372Z,90.00
2022-09-05T07:15:56.811Z,88.50
2022-09-05T07:18:34.898Z,87.10
2022-09-05T07:21:16.403Z,86.00
2022-09-05T07:24:06.450Z,85.20
2022-09-05T07:26:51.618Z,84.00
2022-09-05T07:29:27.668Z,83.20
2022-09-05T07:31:59.500Z,82.70
2022-09-05T07:34:31.432Z,82.40
2022-09-05T07:37:15.391Z,81.80
2022-09-05T07:39:51.303Z,81.80
2022-09-05T07:42:27.580Z,81.40
2022-09-05T07:45:02.412Z,81.30
2022-09-05T07:47:34.374Z,80.30
2022-09-05T07:52:10.703Z,78.90
2022-09-05T07:56:53.303Z,77.50
2022-09-05T07:56:58.644Z,76.20
2022-09-05T07:58:52.483Z,74.80
2022-09-05T08:01:22.907Z,73.60
2022-09-05T08:03:57.268Z,72.10
2022-09-05T08:07:11.913Z,70.80
2022-09-05T08:10:06.026Z,69.60
2022-09-05T08:12:27.918Z,68.40
2022-09-05T08:15:13.998Z,67.30
2022-09-05T08:17:58.839Z,66.50
2022-09-05T08:20:37.065Z,66.10
2022-09-05T08:23:21.026Z,65.40
2022-09-05T08:25:59.675Z,64.60
2022-09-05T08:28:39.173Z,63.90
2022-09-05T08:31:14.519Z,63.20
2022-09-05T08:33:43.427Z,62.40
2022-09-05T08:36:24.146Z,61.80
2022-09-05T08:38:54.226Z,61.30
2022-09-05T08:41:50.300Z,60.70
2022-09-05T08:46:41.710Z,60.00
2022-09-05T08:47:33.009Z,59.60
2022-09-05T08:50:51.728Z,59.30
2022-09-05T08:53:54.228Z,58.60
2022-09-05T08:57:11.852Z,57.90
2022-09-05T09:00:24.734Z,57.20
2022-09-05T09:03:42.913Z,56.80
2022-09-05T09:07:48.007Z,56.40
2022-09-05T09:11:01.850Z,56.10
2022-09-05T09:14:09.853Z,55.50
2022-09-05T09:17:41.850Z,54.80
2022-09-05T09:20:52.876Z,54.30
2022-09-05T09:24:03.841Z,53.80
2022-09-05T09:27:11.869Z,53.40
2022-09-05T09:30:05.989Z,54.00
2022-09-05T09:32:46.364Z,54.00
2022-09-05T09:35:24.793Z,54.40
2022-09-05T09:38:28.750Z,54.70
2022-09-05T09:41:34.223Z,55.10
2022-09-05T09:45:27.836Z,55.50
2022-09-05T09:48:47.310Z,55.10
2022-09-05T09:51:44.765Z,55.30
2022-09-05T09:54:56.621Z,55.30
2022-09-05T09:57:57.629Z,55.80
2022-09-05T10:00:32.098Z,55.80
2022-09-05T10:03:32.433Z,54.80
2022-09-05T10:10:47.951Z,53.20
2022-09-05T10:11:44.008Z,52.00
2022-09-05T10:14:50.046Z,50.90
2022-09-05T10:18:11.109Z,49.90
2022-09-05T10:21:17.984Z,49.30
2022-09-05T10:24:42.973Z,48.80
2022-09-05T10:27:26.344Z,48.20
2022-09-05T10:30:12.227Z,47.90
2022-09-05T10:35:05.290Z,47.40
2022-09-05T10:36:12.890Z,46.90
2022-09-05T10:39:13.482Z,46.30
2022-09-05T10:42:04.871Z,46.50
2022-09-05T10:44:52.887Z,46.10
2022-09-05T10:47:46.880Z,45.80
2022-09-05T10:50:31.371Z,45.60
2022-09-05T10:53:28.468Z,45.00
2022-09-05T10:56:14.764Z,44.60
2022-09-05T11:02:19.199Z,44.30
2022-09-05T11:02:29.326Z,44.30
2022-09-05T11:05:05.664Z,44.10
2022-09-05T11:07:43.624Z,43.80
2022-09-05T11:10:20.276Z,42.90
2022-09-05T11:13:14.308Z,42.70
2022-09-05T11:16:13.694Z,42.40
2022-09-05T11:19:04.702Z,42.40
2022-09-05T11:22:07.422Z,42.10
2022-09-05T11:24:52.440Z,41.80
2022-09-05T11:27:34.005Z,41.70
2022-09-05T11:30:08.152Z,41.30
2022-09-05T11:39:19.252Z,40.90
2022-09-05T11:39:47.014Z,40.90
2022-09-05T11:40:29.297Z,40.40
2022-09-05T11:43:24.340Z,40.40
2022-09-05T11:46:19.584Z,40.20
2022-09-05T11:49:37.113Z,40.00
2022-09-05T11:53:27.916Z,39.50
2022-09-05T11:56:18.927Z,37.60
2022-09-05T11:59:33.512Z,39.00
2022-09-05T12:02:34.713Z,39.10
2022-09-05T12:05:49.031Z,38.80
2022-09-05T12:08:35.417Z,38.80
2022-09-05T12:11:21.435Z,38.80
2022-09-05T12:14:21.389Z,38.80
2022-09-05T12:17:35.396Z,38.40
2022-09-05T12:20:24.918Z,38.30
2022-09-05T12:23:31.167Z,38.00
2022-09-05T12:27:40.715Z,37.80
2022-09-05T12:29:29.001Z,37.50
2022-09-05T12:33:45.526Z,37.50
2022-09-05T12:36:08.457Z,37.00
2022-09-05T12:40:53.748Z,36.80
2022-09-05T12:41:36.241Z,36.70
2022-09-05T12:44:39.908Z,36.70
2022-09-05T12:46:56.170Z,36.60
2022-09-05T12:49:36.096Z,36.20
2022-09-05T12:52:10.600Z,36.00
2022-09-05T12:54:51.027Z,35.90
2022-09-05T13:01:23.387Z,36.00
2022-09-05T13:03:12.781Z,36.00
2022-09-05T13:03:28.126Z,36.00
2022-09-05T13:06:24.801Z,35.70
2022-09-05T13:09:02.251Z,35.70
2022-09-05T13:14:55.593Z,35.60
2022-09-05T13:15:02.403Z,35.60
2022-09-05T13:17:44.361Z,35.40
2022-09-05T13:20:20.159Z,35.30
2022-09-05T13:22:50.946Z,35.10
2022-09-05T13:25:26.954Z,34.90
2022-09-05T13:28:03.726Z,34.70
2022-09-05T13:37:06.184Z,34.60
2022-09-05T13:38:02.434Z,34.40
2022-09-05T13:38:03.701Z,34.00
2022-09-05T13:39:22.863Z,34.40
2022-09-05T13:41:59.460Z,33.50
2022-09-05T13:44:30.023Z,32.40
2022-09-05T13:47:14.746Z,31.60
2022-09-05T13:50:08.294Z,31.30
2022-09-05T13:52:41.585Z,31.00
2022-09-05T13:55:22.953Z,31.10
2022-09-05T13:57:57.435Z,31.20
2022-09-05T14:01:11.240Z,31.40
2022-09-05T14:08:02.696Z,31.50
2022-09-05T14:11:12.305Z,31.50
2022-09-05T14:14:11.308Z,31.60
2022-09-05T14:16:53.520Z,31.80
2022-09-05T14:19:43.459Z,31.80
2022-09-05T14:22:37.752Z,31.80
2022-09-05T14:25:15.175Z,31.70
2022-09-05T14:27:47.216Z,31.60
2022-09-05T14:32:23.652Z,31.70
2022-09-05T14:37:40.127Z,31.60
2022-09-05T14:37:51.595Z,31.50
2022-09-05T14:40:30.511Z,31.40
2022-09-05T14:43:42.600Z,31.20
2022-09-05T14:46:57.156Z,31.20
2022-09-05T14:50:03.685Z,31.20
2022-09-05T14:52:43.406Z,31.10
2022-09-05T15:02:48.283Z,30.90
2022-09-05T15:02:48.459Z,30.90
2022-09-05T15:06:39.625Z,31.10
2022-09-05T15:12:17.198Z,31.20
2022-09-05T15:12:31.211Z,31.10
2022-09-05T15:15:22.606Z,31.10
2022-09-05T15:17:57.045Z,31.00
2022-09-05T15:20:32.557Z,30.90
2022-09-05T15:23:11.233Z,31.00
2022-09-05T15:25:48.762Z,31.00
2022-09-05T15:28:32.048Z,31.10
2022-09-05T15:31:05.000Z,31.20
2022-09-05T15:33:33.910Z,31.30
2022-09-05T15:36:04.351Z,31.40
2022-09-05T15:38:54.993Z,31.40
2022-09-05T15:41:26.580Z,31.40
2022-09-05T15:44:01.789Z,31.50
2022-09-05T15:46:42.415Z,31.70
2022-09-05T15:49:23.090Z,31.90
2022-09-05T15:51:55.730Z,32.30
2022-09-05T15:54:38.568Z,32.60
2022-09-05T15:57:17.639Z,32.80
2022-09-05T15:59:52.983Z,32.70
2022-09-05T16:02:25.883Z,32.60
2022-09-05T16:10:27.616Z,32.50
2022-09-05T16:10:45.940Z,32.30
2022-09-05T16:14:27.549Z,32.30
2022-09-05T16:23:18.675Z,32.30
2022-09-05T16:23:24.300Z,32.40
2022-09-05T16:23:25.482Z,32.40
2022-09-05T16:26:06.260Z,32.50
2022-09-05T16:28:39.459Z,32.60
2022-09-05T16:31:19.325Z,32.70
2022-09-05T16:33:49.875Z,32.80
2022-09-05T16:36:23.544Z,33.10
2022-09-05T16:38:57.035Z,33.40
2022-09-05T16:41:41.264Z,33.50
2022-09-05T16:44:16.711Z,33.50
2022-09-05T16:47:06.752Z,33.60
2022-09-05T16:49:44.338Z,33.60
2022-09-05T16:52:17.952Z,33.50
2022-09-05T16:54:52.693Z,33.60
2022-09-05T16:57:25.589Z,33.80
2022-09-05T16:59:54.484Z,33.80
2022-09-05T17:02:29.756Z,33.80
2022-09-05T17:05:12.218Z,34.00
2022-09-05T17:08:07.190Z,34.00
2022-09-05T17:10:49.356Z,34.10
2022-09-05T17:13:51.114Z,34.20
2022-09-05T17:16:31.164Z,34.40
2022-09-05T17:19:02.617Z,34.40
2022-09-05T17:24:10.989Z,34.60
2022-09-05T17:29:19.687Z,34.80
2022-09-05T17:29:45.518Z,35.00
2022-09-05T17:33:02.732Z,35.50
2022-09-05T17:35:54.645Z,35.60
2022-09-05T17:38:59.843Z,35.80
2022-09-05T17:42:06.040Z,36.00
2022-09-05T17:44:53.060Z,36.10
2022-09-05T17:47:36.436Z,36.30
2022-09-05T17:50:17.821Z,36.60
2022-09-05T17:53:25.940Z,36.80
2022-09-05T17:56:33.348Z,37.10
2022-09-05T17:59:06.650Z,37.30
2022-09-05T18:01:37.314Z,37.50
2022-09-05T18:04:16.149Z,37.70
2022-09-05T18:07:00.462Z,38.00
2022-09-05T18:13:31.499Z,39.00
2022-09-05T18:16:12.464Z,38.70
2022-09-05T18:19:28.145Z,39.00
2022-09-05T18:21:53.013Z,39.20
2022-09-05T18:24:33.671Z,39.60
2022-09-05T18:27:47.440Z,39.70
2022-09-05T18:30:11.754Z,40.00
2022-09-05T18:32:45.236Z,40.20
2022-09-05T18:35:36.255Z,40.40
2022-09-05T18:38:50.955Z,40.60
2022-09-05T18:41:23.676Z,40.90
2022-09-05T18:44:12.374Z,41.10
2022-09-05T18:46:48.357Z,41.30
2022-09-05T18:50:21.525Z,41.40
2022-09-05T18:52:23.842Z,41.60
2022-09-05T18:56:08.884Z,41.90
2022-09-05T18:57:59.074Z,42.10
2022-09-05T19:00:44.688Z,42.30
2022-09-05T19:03:24.836Z,42.50
2022-09-05T19:06:34.798Z,43.00
2022-09-05T19:08:57.180Z,43.00
2022-09-05T19:11:36.073Z,43.20
2022-09-05T19:14:28.544Z,43.50
2022-09-05T19:17:08.821Z,43.70
2022-09-05T19:20:33.067Z,44.00
2022-09-05T19:23:11.811Z,44.20
2022-09-05T19:25:44.463Z,44.50
2022-09-05T19:36:44.248Z,44.80
2022-09-05T19:36:53.118Z,45.00
2022-09-05T19:37:13.088Z,45.30
2022-09-05T19:37:23.846Z,45.70
2022-09-05T19:43:39.081Z,46.00
2022-09-05T19:47:36.963Z,46.30
2022-09-05T19:47:43.040Z,46.70
2022-09-05T19:48:26.660Z,47.00
2022-09-05T19:50:57.012Z,47.30
2022-09-05T19:53:26.925Z,47.50
2022-09-05T19:55:55.485Z,47.50
2022-09-05T19:58:25.675Z,47.60
2022-09-05T20:01:05.826Z,47.80
2022-09-05T20:03:40.853Z,47.90
2022-09-05T20:06:29.728Z,48.00
2022-09-05T20:09:16.538Z,48.00
2022-09-05T20:11:49.894Z,48.10
2022-09-05T20:14:22.750Z,48.10
2022-09-05T20:16:57.096Z,48.20
2022-09-05T20:19:31.279Z,48.30
2022-09-05T20:22:12.832Z,48.40
2022-09-05T20:24:56.348Z,48.40
2022-09-05T20:27:29.784Z,48.40
2022-09-05T20:30:02.369Z,48.50
2022-09-05T20:32:39.479Z,48.60
2022-09-05T20:40:17.927Z,48.70
2022-09-05T20:43:16.317Z,48.80
2022-09-05T20:43:17.839Z,48.80
2022-09-05T20:44:22.342Z,49.00
2022-09-05T20:50:12.977Z,49.00
2022-09-05T20:54:16.969Z,49.00
2022-09-05T20:54:28.945Z,49.00
2022-09-05T20:55:42.443Z,49.10
2022-09-05T20:58:16.282Z,49.10
2022-09-05T21:01:20.079Z,49.20
2022-09-05T21:03:45.578Z,49.30
2022-09-05T21:06:23.472Z,49.30
2022-09-05T21:08:54.698Z,49.40
2022-09-05T21:11:32.600Z,49.40
2022-09-05T21:14:05.780Z,49.50
2022-09-05T21:16:40.722Z,49.50
2022-09-05T21:19:24.659Z,49.60
2022-09-05T21:22:09.718Z,49.70
2022-09-05T21:24:38.320Z,49.70
2022-09-05T21:27:18.250Z,49.90
2022-09-05T21:29:50.937Z,50.00
2022-09-05T21:32:36.250Z,50.20
2022-09-05T21:35:17.387Z,50.30
2022-09-05T21:37:57.588Z,50.50
2022-09-05T21:40:26.021Z,50.60
2022-09-05T21:46:04.617Z,50.80
2022-09-05T21:47:43.207Z,50.90
2022-09-05T21:48:39.136Z,51.10
2022-09-05T21:51:10.224Z,51.20
2022-09-05T21:58:55.242Z,51.40
2022-09-05T21:59:16.303Z,51.60
2022-09-05T21:59:46.111Z,51.70
2022-09-05T22:02:17.687Z,52.00
2022-09-05T22:07:31.913Z,52.30
2022-09-05T22:10:03.175Z,52.60
2022-09-05T22:12:38.511Z,52.70
2022-09-05T22:15:26.830Z,52.90
2022-09-05T22:18:17.428Z,53.10
2022-09-05T22:21:01.316Z,53.20
2022-09-05T22:23:43.295Z,53.30
2022-09-05T22:26:12.263Z,53.40
2022-09-05T22:28:48.762Z,53.50
2022-09-05T22:31:17.342Z,53.60
2022-09-05T22:33:48.251Z,53.80
2022-09-05T22:36:19.830Z,53.90
2022-09-05T22:41:17.301Z,54.10
2022-09-05T22:43:46.482Z,54.20
2022-09-05T22:46:15.445Z,54.30
2022-09-05T22:48:43.849Z,54.40
2022-09-05T22:51:13.837Z,54.50
2022-09-05T22:53:42.143Z,54.70
2022-09-05T22:56:11.199Z,54.70
2022-09-05T22:58:41.746Z,54.80
2022-09-05T23:01:10.960Z,55.00
2022-09-05T23:03:39.387Z,55.00
2022-09-05T23:06:10.651Z,55.10
2022-09-05T23:08:40.490Z,55.30
2022-09-05T23:11:09.813Z,55.40
2022-09-05T23:16:07.756Z,55.50
2022-09-05T23:18:36.561Z,55.60
2022-09-05T23:21:06.739Z,55.60
2022-09-05T23:23:37.140Z,55.70
2022-09-05T23:26:10.504Z,55.80
2022-09-05T23:28:43.087Z,55.90
2022-09-05T23:31:13.324Z,56.10
2022-09-05T23:33:42.731Z,56.10
2022-09-05T23:36:13.753Z,56.30
2022-09-05T23:38:43.308Z,55.90
2022-09-05T23:41:15.611Z,56.60
2022-09-05T23:43:44.449Z,56.70
2022-09-05T23:46:13.176Z,56.90
2022-09-05T23:48:41.811Z,56.90
2022-09-05T23:51:12.946Z,57.10
2022-09-05T23:53:41.747Z,57.20
2022-09-05T23:56:12.528Z,57.30
2022-09-05T23:58:41.407Z,57.40
